sensor_id;sensor_type;location;lat;lon;timestamp;temperature;humidity
7159;DHT22;63175;52.374;13.132;2023-04-24T00:02:01;12.70;99.90
7159;DHT22;63175;52.374;13.132;2023-04-24T00:04:29;12.70;99.90
7159;DHT22;63175;52.374;13.132;2023-04-24T00:06:58;12.70;99.90
7159;DHT22;63175;52.374;13.132;2023-04-24T00:09:25;12.70;99.90
7159;DHT22;63175;52.374;13.132;2023-04-24T00:11:52;12.70;99.90
7159;DHT22;63175;52.374;13.132;2023-04-24T00:14:19;12.70;99.90
7159;DHT22;63175;52.374;13.132;2023-04-24T00:16:46;12.70;99.90
7159;DHT22;63175;52.374;13.132;2023-04-24T00:19:13;12.60;99.90
7159;DHT22;63175;52.374;13.132;2023-04-24T00:21:40;12.70;99.90
7159;DHT22;63175;52.374;13.132;2023-04-24T00:24:08;12.70;99.90
7159;DHT22;63175;52.374;13.132;2023-04-24T00:26:35;12.70;99.90
7159;DHT22;63175;52.374;13.132;2023-04-24T00:29:02;12.70;99.90
7159;DHT22;63175;52.374;13.132;2023-04-24T00:31:29;12.70;99.90
7159;DHT22;63175;52.374;13.132;2023-04-24T00:33:56;12.70;99.90
7159;DHT22;63175;52.374;13.132;2023-04-24T00:36:23;12.70;99.90
7159;DHT22;63175;52.374;13.132;2023-04-24T00:38:50;12.70;99.90
7159;DHT22;63175;52.374;13.132;2023-04-24T00:41:18;13.00;99.90
7159;DHT22;63175;52.374;13.132;2023-04-24T00:43:46;12.70;99.90
7159;DHT22;63175;52.374;13.132;2023-04-24T00:46:14;12.70;99.90
7159;DHT22;63175;52.374;13.132;2023-04-24T00:48:40;12.70;99.90
7159;DHT22;63175;52.374;13.132;2023-04-24T00:51:07;12.70;99.90
7159;DHT22;63175;52.374;13.132;2023-04-24T00:53:34;12.70;99.90
7159;DHT22;63175;52.374;13.132;2023-04-24T00:56:02;12.70;99.90
7159;DHT22;63175;52.374;13.132;2023-04-24T00:58:31;12.70;99.90
7159;DHT22;63175;52.374;13.132;2023-04-24T01:00:58;12.70;99.90
7159;DHT22;63175;52.374;13.132;2023-04-24T01:03:28;12.70;99.90
7159;DHT22;63175;52.374;13.132;2023-04-24T01:05:55;12.70;99.90
7159;DHT22;63175;52.374;13.132;2023-04-24T01:08:23;12.70;99.90
7159;DHT22;63175;52.374;13.132;2023-04-24T01:10:51;12.70;99.90
7159;DHT22;63175;52.374;13.132;2023-04-24T01:13:19;12.70;99.90
7159;DHT22;63175;52.374;13.132;2023-04-24T01:15:47;12.70;99.90
7159;DHT22;63175;52.374;13.132;2023-04-24T01:18:15;12.70;99.90
7159;DHT22;63175;52.374;13.132;2023-04-24T01:20:43;12.60;99.90
7159;DHT22;63175;52.374;13.132;2023-04-24T01:23:13;13.10;99.90
7159;DHT22;63175;52.374;13.132;2023-04-24T01:25:40;12.60;99.90
7159;DHT22;63175;52.374;13.132;2023-04-24T01:28:07;12.60;99.90
7159;DHT22;63175;52.374;13.132;2023-04-24T01:30:34;12.60;99.90
7159;DHT22;63175;52.374;13.132;2023-04-24T01:33:01;12.50;99.90
7159;DHT22;63175;52.374;13.132;2023-04-24T01:35:28;12.60;99.90
7159;DHT22;63175;52.374;13.132;2023-04-24T01:37:55;12.50;99.90
7159;DHT22;63175;52.374;13.132;2023-04-24T01:40:23;12.50;99.90
7159;DHT22;63175;52.374;13.132;2023-04-24T01:42:50;12.50;99.90
7159;DHT22;63175;52.374;13.132;2023-04-24T01:45:17;12.50;99.90
7159;DHT22;63175;52.374;13.132;2023-04-24T01:47:45;12.50;99.90
7159;DHT22;63175;52.374;13.132;2023-04-24T01:50:12;12.50;99.90
7159;DHT22;63175;52.374;13.132;2023-04-24T01:52:39;12.50;99.90
7159;DHT22;63175;52.374;13.132;2023-04-24T01:55:07;12.50;99.90
7159;DHT22;63175;52.374;13.132;2023-04-24T01:57:35;12.50;99.90
7159;DHT22;63175;52.374;13.132;2023-04-24T02:00:03;12.50;99.90
7159;DHT22;63175;52.374;13.132;2023-04-24T02:02:32;12.40;99.90
7159;DHT22;63175;52.374;13.132;2023-04-24T02:04:59;12.50;99.90
7159;DHT22;63175;52.374;13.132;2023-04-24T02:07:26;12.50;99.90
7159;DHT22;63175;52.374;13.132;2023-04-24T02:09:53;12.50;99.90
7159;DHT22;63175;52.374;13.132;2023-04-24T02:12:20;12.50;99.90
7159;DHT22;63175;52.374;13.132;2023-04-24T02:14:49;12.50;99.90
7159;DHT22;63175;52.374;13.132;2023-04-24T02:17:16;12.50;99.90
7159;DHT22;63175;52.374;13.132;2023-04-24T02:19:44;12.50;99.90
7159;DHT22;63175;52.374;13.132;2023-04-24T02:22:11;12.50;99.90
7159;DHT22;63175;52.374;13.132;2023-04-24T02:24:39;12.50;99.90
7159;DHT22;63175;52.374;13.132;2023-04-24T02:27:06;12.50;99.90
7159;DHT22;63175;52.374;13.132;2023-04-24T02:29:32;12.50;99.90
7159;DHT22;63175;52.374;13.132;2023-04-24T02:32:01;12.50;99.90
7159;DHT22;63175;52.374;13.132;2023-04-24T02:34:28;12.50;99.90
7159;DHT22;63175;52.374;13.132;2023-04-24T02:36:55;12.50;99.90
7159;DHT22;63175;52.374;13.132;2023-04-24T02:39:21;12.50;99.90
7159;DHT22;63175;52.374;13.132;2023-04-24T02:41:48;12.50;99.90
7159;DHT22;63175;52.374;13.132;2023-04-24T02:44:15;12.50;99.90
7159;DHT22;63175;52.374;13.132;2023-04-24T02:46:42;12.50;99.90
7159;DHT22;63175;52.374;13.132;2023-04-24T02:49:11;12.40;99.90
7159;DHT22;63175;52.374;13.132;2023-04-24T02:51:38;12.40;99.90
7159;DHT22;63175;52.374;13.132;2023-04-24T02:54:06;12.40;99.90
7159;DHT22;63175;52.374;13.132;2023-04-24T02:56:33;12.40;99.90
7159;DHT22;63175;52.374;13.132;2023-04-24T02:59:00;12.40;99.90
7159;DHT22;63175;52.374;13.132;2023-04-24T03:01:27;12.40;99.90
7159;DHT22;63175;52.374;13.132;2023-04-24T03:03:54;12.40;99.90
7159;DHT22;63175;52.374;13.132;2023-04-24T03:06:22;12.40;99.90
7159;DHT22;63175;52.374;13.132;2023-04-24T03:08:49;12.50;99.90
7159;DHT22;63175;52.374;13.132;2023-04-24T03:11:16;12.50;99.90
7159;DHT22;63175;52.374;13.132;2023-04-24T03:13:42;12.50;99.90
7159;DHT22;63175;52.374;13.132;2023-04-24T03:16:09;12.50;99.90
7159;DHT22;63175;52.374;13.132;2023-04-24T03:18:36;12.50;99.90
7159;DHT22;63175;52.374;13.132;2023-04-24T03:21:03;12.50;99.90
7159;DHT22;63175;52.374;13.132;2023-04-24T03:23:31;12.60;99.90
7159;DHT22;63175;52.374;13.132;2023-04-24T03:25:58;12.60;99.90
7159;DHT22;63175;52.374;13.132;2023-04-24T03:28:25;12.60;99.90
7159;DHT22;63175;52.374;13.132;2023-04-24T03:30:52;12.60;99.90
7159;DHT22;63175;52.374;13.132;2023-04-24T03:33:19;12.60;99.90
7159;DHT22;63175;52.374;13.132;2023-04-24T03:35:46;12.60;99.90
7159;DHT22;63175;52.374;13.132;2023-04-24T03:38:13;12.60;99.90
7159;DHT22;63175;52.374;13.132;2023-04-24T03:40:41;12.60;99.90
7159;DHT22;63175;52.374;13.132;2023-04-24T03:43:08;12.60;99.90
7159;DHT22;63175;52.374;13.132;2023-04-24T03:45:34;12.60;99.90
7159;DHT22;63175;52.374;13.132;2023-04-24T03:48:01;12.60;99.90
7159;DHT22;63175;52.374;13.132;2023-04-24T03:50:28;12.60;99.90
7159;DHT22;63175;52.374;13.132;2023-04-24T03:52:55;12.60;99.90
7159;DHT22;63175;52.374;13.132;2023-04-24T03:55:22;12.60;99.90
7159;DHT22;63175;52.374;13.132;2023-04-24T03:57:50;12.60;99.90
7159;DHT22;63175;52.374;13.132;2023-04-24T04:00:17;12.60;99.90
7159;DHT22;63175;52.374;13.132;2023-04-24T04:02:44;12.60;99.90
7159;DHT22;63175;52.374;13.132;2023-04-24T04:05:11;12.60;99.90
7159;DHT22;63175;52.374;13.132;2023-04-24T04:07:37;12.60;99.90
7159;DHT22;63175;52.374;13.132;2023-04-24T04:10:05;12.60;99.90
7159;DHT22;63175;52.374;13.132;2023-04-24T04:12:33;12.60;99.90
7159;DHT22;63175;52.374;13.132;2023-04-24T04:15:01;12.60;99.90
7159;DHT22;63175;52.374;13.132;2023-04-24T04:17:28;12.60;99.90
7159;DHT22;63175;52.374;13.132;2023-04-24T04:19:55;12.60;99.90
7159;DHT22;63175;52.374;13.132;2023-04-24T04:22:22;12.60;99.90
7159;DHT22;63175;52.374;13.132;2023-04-24T04:24:49;12.60;99.90
7159;DHT22;63175;52.374;13.132;2023-04-24T04:27:16;12.60;99.90
7159;DHT22;63175;52.374;13.132;2023-04-24T04:29:44;12.60;99.90
7159;DHT22;63175;52.374;13.132;2023-04-24T04:32:12;12.60;99.90
7159;DHT22;63175;52.374;13.132;2023-04-24T04:34:39;12.60;99.90
7159;DHT22;63175;52.374;13.132;2023-04-24T04:37:06;12.70;99.90
7159;DHT22;63175;52.374;13.132;2023-04-24T04:39:33;12.60;99.90
7159;DHT22;63175;52.374;13.132;2023-04-24T04:41:59;12.70;99.90
7159;DHT22;63175;52.374;13.132;2023-04-24T04:44:26;12.70;99.90
7159;DHT22;63175;52.374;13.132;2023-04-24T04:46:54;12.60;99.90
7159;DHT22;63175;52.374;13.132;2023-04-24T04:49:23;12.70;99.90
7159;DHT22;63175;52.374;13.132;2023-04-24T04:51:50;12.70;99.90
7159;DHT22;63175;52.374;13.132;2023-04-24T04:54:17;12.70;99.90
7159;DHT22;63175;52.374;13.132;2023-04-24T04:56:44;12.70;99.90
7159;DHT22;63175;52.374;13.132;2023-04-24T04:59:11;12.70;99.90
7159;DHT22;63175;52.374;13.132;2023-04-24T05:01:38;12.70;99.90
7159;DHT22;63175;52.374;13.132;2023-04-24T05:04:05;12.70;99.90
7159;DHT22;63175;52.374;13.132;2023-04-24T05:06:33;12.70;99.90
7159;DHT22;63175;52.374;13.132;2023-04-24T05:09:00;12.80;99.90
7159;DHT22;63175;52.374;13.132;2023-04-24T05:11:29;12.80;99.90
7159;DHT22;63175;52.374;13.132;2023-04-24T05:13:56;12.80;99.90
7159;DHT22;63175;52.374;13.132;2023-04-24T05:16:23;12.90;99.90
7159;DHT22;63175;52.374;13.132;2023-04-24T05:18:50;12.90;99.90
7159;DHT22;63175;52.374;13.132;2023-04-24T05:21:16;12.90;99.90
7159;DHT22;63175;52.374;13.132;2023-04-24T05:23:45;12.80;99.90
7159;DHT22;63175;52.374;13.132;2023-04-24T05:26:12;12.80;99.90
7159;DHT22;63175;52.374;13.132;2023-04-24T05:28:39;12.80;99.90
7159;DHT22;63175;52.374;13.132;2023-04-24T05:31:06;12.80;99.90
7159;DHT22;63175;52.374;13.132;2023-04-24T05:33:33;12.80;99.90
7159;DHT22;63175;52.374;13.132;2023-04-24T05:36:00;12.80;99.90
7159;DHT22;63175;52.374;13.132;2023-04-24T05:38:27;12.90;99.90
7159;DHT22;63175;52.374;13.132;2023-04-24T05:40:55;12.90;99.90
7159;DHT22;63175;52.374;13.132;2023-04-24T05:43:22;12.90;99.90
7159;DHT22;63175;52.374;13.132;2023-04-24T05:45:49;12.90;99.90
7159;DHT22;63175;52.374;13.132;2023-04-24T05:48:16;12.90;99.90
7159;DHT22;63175;52.374;13.132;2023-04-24T05:50:43;12.90;99.90
7159;DHT22;63175;52.374;13.132;2023-04-24T05:53:10;13.00;99.90
7159;DHT22;63175;52.374;13.132;2023-04-24T05:55:36;13.00;99.90
7159;DHT22;63175;52.374;13.132;2023-04-24T05:58:05;13.10;99.90
7159;DHT22;63175;52.374;13.132;2023-04-24T06:00:32;13.20;99.90
7159;DHT22;63175;52.374;13.132;2023-04-24T06:03:00;13.30;99.90
7159;DHT22;63175;52.374;13.132;2023-04-24T06:05:29;13.40;99.90
7159;DHT22;63175;52.374;13.132;2023-04-24T06:07:55;13.50;99.90
7159;DHT22;63175;52.374;13.132;2023-04-24T06:10:22;13.50;99.90
7159;DHT22;63175;52.374;13.132;2023-04-24T06:12:49;13.60;99.90
7159;DHT22;63175;52.374;13.132;2023-04-24T06:15:18;13.80;99.90
7159;DHT22;63175;52.374;13.132;2023-04-24T06:17:45;13.90;99.90
7159;DHT22;63175;52.374;13.132;2023-04-24T06:20:11;14.10;99.90
7159;DHT22;63175;52.374;13.132;2023-04-24T06:22:38;14.20;99.90
7159;DHT22;63175;52.374;13.132;2023-04-24T06:25:06;14.40;99.90
7159;DHT22;63175;52.374;13.132;2023-04-24T06:27:33;14.70;99.90
7159;DHT22;63175;52.374;13.132;2023-04-24T06:30:00;14.90;99.90
7159;DHT22;63175;52.374;13.132;2023-04-24T06:32:29;15.10;99.90
7159;DHT22;63175;52.374;13.132;2023-04-24T06:34:56;15.30;99.90
7159;DHT22;63175;52.374;13.132;2023-04-24T06:37:23;15.40;99.90
7159;DHT22;63175;52.374;13.132;2023-04-24T06:39:50;15.40;99.90
7159;DHT22;63175;52.374;13.132;2023-04-24T06:42:17;15.40;99.90
7159;DHT22;63175;52.374;13.132;2023-04-24T06:44:46;15.50;99.90
7159;DHT22;63175;52.374;13.132;2023-04-24T06:47:13;15.50;99.90
7159;DHT22;63175;52.374;13.132;2023-04-24T06:49:41;15.50;99.90
7159;DHT22;63175;52.374;13.132;2023-04-24T06:52:08;15.40;99.90
7159;DHT22;63175;52.374;13.132;2023-04-24T06:54:35;15.50;99.90
7159;DHT22;63175;52.374;13.132;2023-04-24T06:57:02;15.50;99.90
7159;DHT22;63175;52.374;13.132;2023-04-24T06:59:29;15.50;99.90
7159;DHT22;63175;52.374;13.132;2023-04-24T07:01:56;15.50;99.90
7159;DHT22;63175;52.374;13.132;2023-04-24T07:04:24;15.50;99.90
7159;DHT22;63175;52.374;13.132;2023-04-24T07:06:52;15.50;99.90
7159;DHT22;63175;52.374;13.132;2023-04-24T07:09:21;15.60;99.90
7159;DHT22;63175;52.374;13.132;2023-04-24T07:11:49;15.80;99.90
7159;DHT22;63175;52.374;13.132;2023-04-24T07:14:16;16.00;99.90
7159;DHT22;63175;52.374;13.132;2023-04-24T07:16:43;16.10;99.90
7159;DHT22;63175;52.374;13.132;2023-04-24T07:19:10;16.30;99.90
7159;DHT22;63175;52.374;13.132;2023-04-24T07:21:37;16.50;99.90
7159;DHT22;63175;52.374;13.132;2023-04-24T07:24:05;16.70;99.90
7159;DHT22;63175;52.374;13.132;2023-04-24T07:26:34;17.10;99.90
7159;DHT22;63175;52.374;13.132;2023-04-24T07:29:01;17.40;99.90
7159;DHT22;63175;52.374;13.132;2023-04-24T07:31:28;17.70;99.90
7159;DHT22;63175;52.374;13.132;2023-04-24T07:33:55;18.00;99.90
7159;DHT22;63175;52.374;13.132;2023-04-24T07:36:23;18.10;99.90
7159;DHT22;63175;52.374;13.132;2023-04-24T07:38:51;18.10;99.90
7159;DHT22;63175;52.374;13.132;2023-04-24T07:41:20;18.10;99.90
7159;DHT22;63175;52.374;13.132;2023-04-24T07:43:47;18.00;99.90
7159;DHT22;63175;52.374;13.132;2023-04-24T07:46:14;18.00;99.70
7159;DHT22;63175;52.374;13.132;2023-04-24T07:48:41;17.80;99.10
7159;DHT22;63175;52.374;13.132;2023-04-24T07:51:07;17.70;99.50
7159;DHT22;63175;52.374;13.132;2023-04-24T07:53:35;17.70;98.40
7159;DHT22;63175;52.374;13.132;2023-04-24T07:56:02;17.60;97.60
7159;DHT22;63175;52.374;13.132;2023-04-24T07:58:30;17.60;98.50
7159;DHT22;63175;52.374;13.132;2023-04-24T08:00:57;17.60;99.00
7159;DHT22;63175;52.374;13.132;2023-04-24T08:03:24;17.70;99.00
7159;DHT22;63175;52.374;13.132;2023-04-24T08:05:51;17.80;98.30
7159;DHT22;63175;52.374;13.132;2023-04-24T08:08:19;17.80;99.00
7159;DHT22;63175;52.374;13.132;2023-04-24T08:10:46;17.90;99.20
7159;DHT22;63175;52.374;13.132;2023-04-24T08:13:13;17.80;98.40
7159;DHT22;63175;52.374;13.132;2023-04-24T08:15:41;17.80;98.20
7159;DHT22;63175;52.374;13.132;2023-04-24T08:18:08;17.70;97.90
7159;DHT22;63175;52.374;13.132;2023-04-24T08:20:40;17.60;97.50
7159;DHT22;63175;52.374;13.132;2023-04-24T08:23:09;17.40;97.90
7159;DHT22;63175;52.374;13.132;2023-04-24T08:25:36;17.30;98.70
7159;DHT22;63175;52.374;13.132;2023-04-24T08:28:05;17.20;99.30
7159;DHT22;63175;52.374;13.132;2023-04-24T08:30:32;17.10;99.80
7159;DHT22;63175;52.374;13.132;2023-04-24T08:33:00;17.00;99.90
7159;DHT22;63175;52.374;13.132;2023-04-24T08:35:27;16.90;99.90
7159;DHT22;63175;52.374;13.132;2023-04-24T08:37:54;16.80;99.90
7159;DHT22;63175;52.374;13.132;2023-04-24T08:40:27;16.80;99.90
7159;DHT22;63175;52.374;13.132;2023-04-24T08:42:55;16.70;99.60
7159;DHT22;63175;52.374;13.132;2023-04-24T08:45:23;16.60;99.90
7159;DHT22;63175;52.374;13.132;2023-04-24T08:47:52;16.60;99.90
7159;DHT22;63175;52.374;13.132;2023-04-24T08:50:21;16.60;99.90
7159;DHT22;63175;52.374;13.132;2023-04-24T08:52:50;16.60;99.90
7159;DHT22;63175;52.374;13.132;2023-04-24T08:55:19;16.60;99.90
7159;DHT22;63175;52.374;13.132;2023-04-24T08:57:50;16.60;99.90
7159;DHT22;63175;52.374;13.132;2023-04-24T09:00:19;16.60;99.90
7159;DHT22;63175;52.374;13.132;2023-04-24T09:02:48;16.60;99.90
7159;DHT22;63175;52.374;13.132;2023-04-24T09:05:16;16.60;99.90
7159;DHT22;63175;52.374;13.132;2023-04-24T09:07:50;16.70;99.90
7159;DHT22;63175;52.374;13.132;2023-04-24T09:10:19;16.80;99.20
7159;DHT22;63175;52.374;13.132;2023-04-24T09:12:47;16.90;99.50
7159;DHT22;63175;52.374;13.132;2023-04-24T09:15:14;17.00;98.90
7159;DHT22;63175;52.374;13.132;2023-04-24T09:17:41;17.00;98.90
7159;DHT22;63175;52.374;13.132;2023-04-24T09:20:08;17.00;99.10
7159;DHT22;63175;52.374;13.132;2023-04-24T09:22:36;17.00;98.60
7159;DHT22;63175;52.374;13.132;2023-04-24T09:25:05;16.90;99.00
7159;DHT22;63175;52.374;13.132;2023-04-24T09:27:33;16.80;99.30
7159;DHT22;63175;52.374;13.132;2023-04-24T09:30:00;16.90;99.90
7159;DHT22;63175;52.374;13.132;2023-04-24T09:32:27;17.00;99.80
7159;DHT22;63175;52.374;13.132;2023-04-24T09:35:10;17.00;99.50
7159;DHT22;63175;52.374;13.132;2023-04-24T09:37:38;17.20;97.70
7159;DHT22;63175;52.374;13.132;2023-04-24T09:40:14;17.40;96.90
7159;DHT22;63175;52.374;13.132;2023-04-24T09:42:43;17.80;96.20
7159;DHT22;63175;52.374;13.132;2023-04-24T09:45:10;18.20;95.40
7159;DHT22;63175;52.374;13.132;2023-04-24T09:47:38;18.50;94.50
7159;DHT22;63175;52.374;13.132;2023-04-24T09:50:13;18.50;93.50
7159;DHT22;63175;52.374;13.132;2023-04-24T09:52:41;18.30;94.00
7159;DHT22;63175;52.374;13.132;2023-04-24T09:55:16;18.20;93.70
7159;DHT22;63175;52.374;13.132;2023-04-24T09:57:48;18.30;94.40
7159;DHT22;63175;52.374;13.132;2023-04-24T10:00:19;18.50;94.20
7159;DHT22;63175;52.374;13.132;2023-04-24T10:02:50;18.50;94.50
7159;DHT22;63175;52.374;13.132;2023-04-24T10:05:18;18.90;94.90
7159;DHT22;63175;52.374;13.132;2023-04-24T10:07:45;19.20;92.90
7159;DHT22;63175;52.374;13.132;2023-04-24T10:10:13;19.10;91.80
7159;DHT22;63175;52.374;13.132;2023-04-24T10:12:40;18.80;91.20
7159;DHT22;63175;52.374;13.132;2023-04-24T10:15:12;18.40;91.30
7159;DHT22;63175;52.374;13.132;2023-04-24T10:17:40;18.00;91.60
7159;DHT22;63175;52.374;13.132;2023-04-24T10:20:33;17.70;92.60
7159;DHT22;63175;52.374;13.132;2023-04-24T10:23:20;17.40;93.00
7159;DHT22;63175;52.374;13.132;2023-04-24T10:25:51;17.20;93.50
7159;DHT22;63175;52.374;13.132;2023-04-24T10:28:20;17.00;93.90
7159;DHT22;63175;52.374;13.132;2023-04-24T10:30:48;16.80;94.60
7159;DHT22;63175;52.374;13.132;2023-04-24T10:33:16;16.80;95.30
7159;DHT22;63175;52.374;13.132;2023-04-24T10:35:46;17.20;96.00
7159;DHT22;63175;52.374;13.132;2023-04-24T10:38:16;19.10;93.60
7159;DHT22;63175;52.374;13.132;2023-04-24T10:40:45;21.10;88.30
7159;DHT22;63175;52.374;13.132;2023-04-24T10:43:17;21.90;79.60
7159;DHT22;63175;52.374;13.132;2023-04-24T10:46:00;21.50;77.30
7159;DHT22;63175;52.374;13.132;2023-04-24T10:48:28;20.70;77.60
7159;DHT22;63175;52.374;13.132;2023-04-24T10:50:55;20.10;79.80
7159;DHT22;63175;52.374;13.132;2023-04-24T10:53:23;19.60;83.10
7159;DHT22;63175;52.374;13.132;2023-04-24T10:55:57;19.10;85.00
7159;DHT22;63175;52.374;13.132;2023-04-24T10:58:36;18.70;85.20
7159;DHT22;63175;52.374;13.132;2023-04-24T11:01:05;18.20;86.30
7159;DHT22;63175;52.374;13.132;2023-04-24T11:03:34;18.00;88.60
7159;DHT22;63175;52.374;13.132;2023-04-24T11:06:02;17.80;90.40
7159;DHT22;63175;52.374;13.132;2023-04-24T11:08:32;17.70;91.70
7159;DHT22;63175;52.374;13.132;2023-04-24T11:11:07;17.70;92.60
7159;DHT22;63175;52.374;13.132;2023-04-24T11:14:07;17.60;93.40
7159;DHT22;63175;52.374;13.132;2023-04-24T11:16:42;17.50;94.20
7159;DHT22;63175;52.374;13.132;2023-04-24T11:19:17;17.40;94.60
7159;DHT22;63175;52.374;13.132;2023-04-24T11:21:47;17.50;95.60
7159;DHT22;63175;52.374;13.132;2023-04-24T11:24:26;17.80;95.10
7159;DHT22;63175;52.374;13.132;2023-04-24T11:26:54;17.90;94.50
7159;DHT22;63175;52.374;13.132;2023-04-24T11:29:38;17.90;93.80
7159;DHT22;63175;52.374;13.132;2023-04-24T11:32:18;18.00;93.00
7159;DHT22;63175;52.374;13.132;2023-04-24T11:34:46;18.70;92.30
7159;DHT22;63175;52.374;13.132;2023-04-24T11:37:14;19.30;90.00
7159;DHT22;63175;52.374;13.132;2023-04-24T11:39:41;19.70;86.90
7159;DHT22;63175;52.374;13.132;2023-04-24T11:42:08;19.80;84.20
7159;DHT22;63175;52.374;13.132;2023-04-24T11:44:37;20.10;82.20
7159;DHT22;63175;52.374;13.132;2023-04-24T11:47:04;20.30;76.10
7159;DHT22;63175;52.374;13.132;2023-04-24T11:49:32;20.80;75.20
7159;DHT22;63175;52.374;13.132;2023-04-24T11:51:59;21.10;68.00
7159;DHT22;63175;52.374;13.132;2023-04-24T11:54:26;21.00;58.00
7159;DHT22;63175;52.374;13.132;2023-04-24T11:56:53;20.80;61.00
7159;DHT22;63175;52.374;13.132;2023-04-24T11:59:21;20.80;59.60
7159;DHT22;63175;52.374;13.132;2023-04-24T12:01:49;21.00;59.90
7159;DHT22;63175;52.374;13.132;2023-04-24T12:04:17;21.10;58.10
7159;DHT22;63175;52.374;13.132;2023-04-24T12:07:00;21.10;57.30
7159;DHT22;63175;52.374;13.132;2023-04-24T12:09:27;20.90;54.80
7159;DHT22;63175;52.374;13.132;2023-04-24T12:11:54;20.80;54.90
7159;DHT22;63175;52.374;13.132;2023-04-24T12:14:22;20.90;54.70
7159;DHT22;63175;52.374;13.132;2023-04-24T12:16:50;21.10;53.30
7159;DHT22;63175;52.374;13.132;2023-04-24T12:19:20;21.30;52.60
7159;DHT22;63175;52.374;13.132;2023-04-24T12:21:59;21.30;51.60
7159;DHT22;63175;52.374;13.132;2023-04-24T12:24:26;21.00;52.20
7159;DHT22;63175;52.374;13.132;2023-04-24T12:26:53;20.80;52.30
7159;DHT22;63175;52.374;13.132;2023-04-24T12:29:20;20.70;52.60
7159;DHT22;63175;52.374;13.132;2023-04-24T12:31:47;20.70;51.70
7159;DHT22;63175;52.374;13.132;2023-04-24T12:34:19;20.70;51.30
7159;DHT22;63175;52.374;13.132;2023-04-24T12:36:46;20.70;51.20
7159;DHT22;63175;52.374;13.132;2023-04-24T12:39:17;20.60;50.20
7159;DHT22;63175;52.374;13.132;2023-04-24T12:41:54;20.40;50.80
7159;DHT22;63175;52.374;13.132;2023-04-24T12:44:29;20.00;50.90
7159;DHT22;63175;52.374;13.132;2023-04-24T12:46:56;19.80;51.70
7159;DHT22;63175;52.374;13.132;2023-04-24T12:49:24;19.80;51.90
7159;DHT22;63175;52.374;13.132;2023-04-24T12:51:51;19.90;51.90
7159;DHT22;63175;52.374;13.132;2023-04-24T12:54:18;20.20;50.60
7159;DHT22;63175;52.374;13.132;2023-04-24T12:56:45;20.50;48.40
7159;DHT22;63175;52.374;13.132;2023-04-24T12:59:12;20.70;47.10
7159;DHT22;63175;52.374;13.132;2023-04-24T13:01:39;20.70;47.40
7159;DHT22;63175;52.374;13.132;2023-04-24T13:04:06;20.80;48.20
7159;DHT22;63175;52.374;13.132;2023-04-24T13:06:34;20.80;48.70
7159;DHT22;63175;52.374;13.132;2023-04-24T13:09:01;20.70;49.10
7159;DHT22;63175;52.374;13.132;2023-04-24T13:11:28;20.70;49.60
7159;DHT22;63175;52.374;13.132;2023-04-24T13:13:55;20.60;49.10
7159;DHT22;63175;52.374;13.132;2023-04-24T13:16:22;20.60;48.50
7159;DHT22;63175;52.374;13.132;2023-04-24T13:18:49;20.50;47.90
7159;DHT22;63175;52.374;13.132;2023-04-24T13:21:16;20.50;47.70
7159;DHT22;63175;52.374;13.132;2023-04-24T13:23:44;20.50;47.50
7159;DHT22;63175;52.374;13.132;2023-04-24T13:26:11;20.50;47.60
7159;DHT22;63175;52.374;13.132;2023-04-24T13:28:38;20.60;47.20
7159;DHT22;63175;52.374;13.132;2023-04-24T13:31:05;20.30;47.40
7159;DHT22;63175;52.374;13.132;2023-04-24T13:33:32;20.10;48.00
7159;DHT22;63175;52.374;13.132;2023-04-24T13:35:59;19.90;48.40
7159;DHT22;63175;52.374;13.132;2023-04-24T13:38:25;19.70;48.70
7159;DHT22;63175;52.374;13.132;2023-04-24T13:40:54;19.60;48.80
7159;DHT22;63175;52.374;13.132;2023-04-24T13:43:21;19.80;48.50
7159;DHT22;63175;52.374;13.132;2023-04-24T13:45:48;20.20;47.80
7159;DHT22;63175;52.374;13.132;2023-04-24T13:48:15;20.50;46.90
7159;DHT22;63175;52.374;13.132;2023-04-24T13:50:42;20.80;46.70
7159;DHT22;63175;52.374;13.132;2023-04-24T13:53:09;21.00;46.90
7159;DHT22;63175;52.374;13.132;2023-04-24T13:55:36;21.20;46.50
7159;DHT22;63175;52.374;13.132;2023-04-24T13:58:06;21.20;46.70
7159;DHT22;63175;52.374;13.132;2023-04-24T14:00:33;21.30;46.40
7159;DHT22;63175;52.374;13.132;2023-04-24T14:03:00;21.50;46.30
7159;DHT22;63175;52.374;13.132;2023-04-24T14:05:26;21.50;45.70
7159;DHT22;63175;52.374;13.132;2023-04-24T14:07:53;21.20;45.70
7159;DHT22;63175;52.374;13.132;2023-04-24T14:10:20;20.90;46.40
7159;DHT22;63175;52.374;13.132;2023-04-24T14:12:47;20.90;47.30
7159;DHT22;63175;52.374;13.132;2023-04-24T14:15:16;21.00;46.70
7159;DHT22;63175;52.374;13.132;2023-04-24T14:17:43;21.20;46.30
7159;DHT22;63175;52.374;13.132;2023-04-24T14:20:11;21.20;46.00
7159;DHT22;63175;52.374;13.132;2023-04-24T14:22:38;21.40;46.60
7159;DHT22;63175;52.374;13.132;2023-04-24T14:25:06;21.60;46.30
7159;DHT22;63175;52.374;13.132;2023-04-24T14:27:33;21.70;45.00
7159;DHT22;63175;52.374;13.132;2023-04-24T14:30:00;21.80;45.40
7159;DHT22;63175;52.374;13.132;2023-04-24T14:32:28;21.80;45.40
7159;DHT22;63175;52.374;13.132;2023-04-24T14:34:55;21.60;45.30
7159;DHT22;63175;52.374;13.132;2023-04-24T14:37:22;21.30;45.30
7159;DHT22;63175;52.374;13.132;2023-04-24T14:39:48;21.00;46.20
7159;DHT22;63175;52.374;13.132;2023-04-24T14:42:15;20.80;46.70
7159;DHT22;63175;52.374;13.132;2023-04-24T14:44:43;20.60;46.60
7159;DHT22;63175;52.374;13.132;2023-04-24T14:47:10;20.50;47.10
7159;DHT22;63175;52.374;13.132;2023-04-24T14:49:38;20.40;46.90
7159;DHT22;63175;52.374;13.132;2023-04-24T14:52:05;20.30;46.80
7159;DHT22;63175;52.374;13.132;2023-04-24T14:54:32;20.20;46.80
7159;DHT22;63175;52.374;13.132;2023-04-24T14:56:59;20.10;46.60
7159;DHT22;63175;52.374;13.132;2023-04-24T14:59:27;19.80;46.80
7159;DHT22;63175;52.374;13.132;2023-04-24T15:01:54;19.60;47.60
7159;DHT22;63175;52.374;13.132;2023-04-24T15:04:23;19.40;48.30
7159;DHT22;63175;52.374;13.132;2023-04-24T15:06:52;19.30;49.00
7159;DHT22;63175;52.374;13.132;2023-04-24T15:09:20;19.10;49.10
7159;DHT22;63175;52.374;13.132;2023-04-24T15:11:47;18.90;48.80
7159;DHT22;63175;52.374;13.132;2023-04-24T15:14:14;18.70;49.60
7159;DHT22;63175;52.374;13.132;2023-04-24T15:16:42;18.50;50.10
7159;DHT22;63175;52.374;13.132;2023-04-24T15:19:09;18.40;50.20
7159;DHT22;63175;52.374;13.132;2023-04-24T15:21:37;18.20;49.90
7159;DHT22;63175;52.374;13.132;2023-04-24T15:24:07;18.10;50.10
7159;DHT22;63175;52.374;13.132;2023-04-24T15:26:34;18.00;50.40
7159;DHT22;63175;52.374;13.132;2023-04-24T15:29:02;17.90;50.80
7159;DHT22;63175;52.374;13.132;2023-04-24T15:31:28;18.00;51.30
7159;DHT22;63175;52.374;13.132;2023-04-24T15:33:55;18.00;51.30
7159;DHT22;63175;52.374;13.132;2023-04-24T15:36:22;18.10;50.40